Forside
METAR-TAF:

METAR-TAF

Lufthavne :

Iranshahr, Iran

Breddekreds: 27-12N, længdekreds: 060-42E, højde: 591 m

Aktuelle vejr

Denne rapport blev lavet for 41 minutter siden, kl. 07:00 UTC
Vind 4 kt fra nordvest
Temperatur 23°C
Fugtighed 22%
Tryk 1015 hPa
Sigt 10 km eller mere
ingen skyer under 1500m og ingen cumulonimbus

METAR: OIZI 290700Z 31004KT CAVOK 23/M00 Q1015

Tid: 11:11 (07:41 UTC)


TAF: fraværende

Vejrobservationer og prognoser fra mere end 4000 lufthavne (METAR og TAF).

De gule og røde prikker repræsenterer de meteorologiske stationer.

Flyt musen over at se navnet på stationen.

Så klik over at se vejr observationer og prognoser.

At skifte det kort: Klik på de grønne knapper med et sort kors for at zoome ind; på den grønne knap med en bindestreg for at zoome ud; eller på de grønne pile for tilstødende kort.


METAR-TAF: